createdAt,value
2018-03-19T00:00:52.673Z,11.57
2018-03-19T00:03:20.246Z,11.13
2018-03-19T00:05:48.013Z,12.43
2018-03-19T00:08:15.519Z,11.63
2018-03-19T00:10:43.047Z,11.37
2018-03-19T00:13:10.590Z,11.47
2018-03-19T00:15:38.129Z,12.03
2018-03-19T00:18:05.655Z,11.33
2018-03-19T00:20:33.214Z,11.90
2018-03-19T00:23:00.744Z,11.10
2018-03-19T00:25:28.380Z,12.60
2018-03-19T00:27:55.988Z,11.60
2018-03-19T00:30:23.530Z,11.20
2018-03-19T00:32:51.043Z,11.73
2018-03-19T00:35:18.849Z,12.33
2018-03-19T00:37:46.369Z,10.97
2018-03-19T00:40:13.911Z,11.50
2018-03-19T00:42:41.499Z,11.63
2018-03-19T00:45:09.058Z,12.10
2018-03-19T00:47:36.608Z,11.27
2018-03-19T00:50:04.169Z,11.60
2018-03-19T00:52:31.708Z,12.47
2018-03-19T00:54:59.219Z,11.67
2018-03-19T00:57:26.853Z,11.80
2018-03-19T00:59:54.396Z,11.50
2018-03-19T01:02:21.972Z,11.90
2018-03-19T01:04:49.544Z,11.80
2018-03-19T01:07:17.110Z,11.50
2018-03-19T01:09:44.618Z,12.90
2018-03-19T01:12:12.175Z,11.53
2018-03-19T01:14:39.696Z,11.47
2018-03-19T01:17:07.229Z,11.90
2018-03-19T01:19:34.825Z,12.03
2018-03-19T01:22:02.363Z,10.70
2018-03-19T01:24:29.921Z,11.57
2018-03-19T01:26:57.572Z,12.00
2018-03-19T01:29:25.353Z,12.60
2018-03-19T01:31:52.877Z,17.47
2018-03-19T01:34:20.435Z,13.00
2018-03-19T01:36:48.008Z,12.40
2018-03-19T01:39:15.534Z,11.53
2018-03-19T01:41:43.072Z,11.93
2018-03-19T01:44:10.610Z,12.80
2018-03-19T01:46:38.135Z,12.70
2018-03-19T01:49:05.675Z,12.43
2018-03-19T01:51:33.199Z,12.77
2018-03-19T01:54:00.719Z,11.73
2018-03-19T01:56:28.274Z,12.17
2018-03-19T01:58:55.781Z,12.47
2018-03-19T02:01:23.376Z,12.40
2018-03-19T02:03:51.240Z,12.73
2018-03-19T02:06:18.763Z,12.10
2018-03-19T02:08:46.305Z,12.67
2018-03-19T02:11:13.912Z,12.27
2018-03-19T02:13:41.428Z,11.97
2018-03-19T02:16:08.939Z,12.37
2018-03-19T02:18:36.502Z,12.90
2018-03-19T02:21:04.313Z,12.93
2018-03-19T02:23:31.855Z,12.23
2018-03-19T02:25:59.400Z,12.57
2018-03-19T02:28:26.916Z,11.47
2018-03-19T02:30:54.463Z,13.40
2018-03-19T02:33:22.063Z,12.50
2018-03-19T02:35:49.563Z,13.10
2018-03-19T02:38:17.078Z,12.87
2018-03-19T02:40:44.634Z,13.17
2018-03-19T02:43:12.141Z,11.73
2018-03-19T02:45:40.187Z,11.80
2018-03-19T02:48:07.727Z,11.87
2018-03-19T02:50:35.500Z,12.53
2018-03-19T02:53:03.271Z,11.73
2018-03-19T02:55:30.861Z,12.60
2018-03-19T02:57:58.691Z,12.40
2018-03-19T03:00:26.474Z,11.97
2018-03-19T03:02:54.040Z,12.50
2018-03-19T03:05:21.564Z,12.37
2018-03-19T03:07:49.125Z,12.23
2018-03-19T03:10:16.685Z,12.37
2018-03-19T03:12:44.207Z,12.80
2018-03-19T03:15:12.025Z,12.47
2018-03-19T03:17:39.644Z,12.00
2018-03-19T03:20:07.163Z,12.33
2018-03-19T03:22:34.721Z,11.90
2018-03-19T03:25:02.265Z,12.30
2018-03-19T03:27:29.781Z,12.93
2018-03-19T03:29:57.592Z,12.27
2018-03-19T03:32:25.138Z,11.67
2018-03-19T03:34:52.684Z,11.90
2018-03-19T03:37:20.213Z,12.37
2018-03-19T03:39:47.755Z,12.47
2018-03-19T03:42:15.319Z,12.43
2018-03-19T03:44:42.836Z,12.60
2018-03-19T03:47:10.619Z,12.40
2018-03-19T03:49:38.185Z,13.27
2018-03-19T03:52:05.754Z,12.20
2018-03-19T03:54:33.506Z,12.00
2018-03-19T03:57:01.020Z,12.47
2018-03-19T03:59:28.551Z,12.13
2018-03-19T04:01:56.108Z,11.70
2018-03-19T04:04:23.645Z,12.13
2018-03-19T04:06:51.205Z,12.07
2018-03-19T04:09:18.833Z,12.30
2018-03-19T04:11:46.344Z,11.70
2018-03-19T04:14:13.831Z,12.37
2018-03-19T04:16:41.433Z,11.63
2018-03-19T04:19:09.219Z,12.30
2018-03-19T04:21:36.733Z,12.20
2018-03-19T04:24:04.288Z,11.93
2018-03-19T04:26:31.789Z,11.77
2018-03-19T04:28:59.318Z,12.73
2018-03-19T04:31:26.865Z,12.10
2018-03-19T04:33:54.369Z,11.57
2018-03-19T04:36:21.909Z,12.20
2018-03-19T04:38:49.622Z,12.10
2018-03-19T04:41:17.467Z,11.87
2018-03-19T04:43:45.035Z,11.40
2018-03-19T04:46:12.571Z,11.80
2018-03-19T04:48:40.464Z,11.80
2018-03-19T04:51:07.997Z,12.90
2018-03-19T04:53:35.575Z,12.33
2018-03-19T04:56:03.115Z,11.97
2018-03-19T04:58:30.907Z,12.60
2018-03-19T05:00:58.466Z,11.87
2018-03-19T05:03:25.985Z,10.90
2018-03-19T05:05:53.498Z,12.50
2018-03-19T05:08:21.061Z,11.00
2018-03-19T05:10:48.579Z,12.37
2018-03-19T05:13:16.287Z,12.63
2018-03-19T05:15:43.892Z,11.87
2018-03-19T05:18:11.407Z,12.73
2018-03-19T05:20:38.920Z,11.93
2018-03-19T05:23:06.475Z,11.87
2018-03-19T05:25:33.985Z,12.23
2018-03-19T05:28:01.545Z,12.40
2018-03-19T05:30:29.210Z,12.63
2018-03-19T05:32:56.727Z,12.20
2018-03-19T05:35:24.254Z,12.27
2018-03-19T05:37:51.850Z,11.53
2018-03-19T05:40:19.438Z,12.63
2018-03-19T05:42:47.062Z,12.03
2018-03-19T05:45:15.013Z,12.30
2018-03-19T05:47:42.841Z,12.40
2018-03-19T05:50:10.370Z,12.10
2018-03-19T05:52:37.923Z,11.97
2018-03-19T05:55:05.522Z,12.17
2018-03-19T05:57:33.041Z,12.30
2018-03-19T06:00:01.004Z,12.97
2018-03-19T06:02:28.835Z,13.10
2018-03-19T06:04:56.338Z,12.50
2018-03-19T06:07:23.893Z,12.27
2018-03-19T06:09:51.494Z,12.23
2018-03-19T06:12:19.482Z,12.67
2018-03-19T06:14:47.039Z,11.80
2018-03-19T06:17:14.622Z,14.00
2018-03-19T06:19:42.118Z,13.23
2018-03-19T06:22:09.785Z,13.40
2018-03-19T06:24:37.315Z,12.53
2018-03-19T06:27:04.842Z,14.70
2018-03-19T06:29:32.706Z,11.97
2018-03-19T06:32:00.240Z,12.70
2018-03-19T06:34:28.037Z,13.33
2018-03-19T06:36:55.662Z,12.37
2018-03-19T06:39:23.468Z,13.70
2018-03-19T06:41:51.025Z,12.37
2018-03-19T06:44:18.583Z,13.30
2018-03-19T06:46:46.117Z,13.07
2018-03-19T06:49:13.651Z,13.30
2018-03-19T06:51:41.197Z,14.47
2018-03-19T06:54:08.933Z,12.93
2018-03-19T06:56:36.798Z,15.90
2018-03-19T06:59:04.468Z,13.80
2018-03-19T07:01:31.984Z,13.30
2018-03-19T07:03:59.484Z,11.77
2018-03-19T07:06:27.147Z,13.30
2018-03-19T07:08:54.739Z,12.83
2018-03-19T07:11:22.328Z,13.30
2018-03-19T07:13:49.860Z,13.03
2018-03-19T07:16:17.376Z,12.53
2018-03-19T07:18:44.896Z,12.80
2018-03-19T07:21:12.709Z,13.07
2018-03-19T07:23:40.240Z,11.93
2018-03-19T07:26:08.037Z,12.40
2018-03-19T07:28:35.950Z,12.80
2018-03-19T07:31:03.548Z,12.70
2018-03-19T07:33:31.215Z,12.93
2018-03-19T07:35:58.846Z,12.90
2018-03-19T07:38:26.364Z,12.23
2018-03-19T07:40:53.921Z,13.10
2018-03-19T07:43:21.886Z,12.67
2018-03-19T07:45:49.440Z,12.37
2018-03-19T07:48:17.069Z,14.50
2018-03-19T07:50:44.646Z,13.57
2018-03-19T07:53:12.201Z,12.83
2018-03-19T07:55:39.733Z,12.40
2018-03-19T07:58:07.325Z,13.43
2018-03-19T08:00:35.113Z,13.30
2018-03-19T08:03:02.643Z,13.37
2018-03-19T08:05:30.278Z,12.40
2018-03-19T08:07:57.902Z,12.57
2018-03-19T08:10:25.432Z,11.93
2018-03-19T08:12:53.018Z,11.90
2018-03-19T08:15:20.531Z,11.70
2018-03-19T08:17:48.080Z,11.40
2018-03-19T08:20:15.680Z,12.80
2018-03-19T08:22:43.382Z,12.20
2018-03-19T08:25:11.162Z,12.30
2018-03-19T08:27:38.708Z,12.20
2018-03-19T08:30:06.241Z,11.63
2018-03-19T08:32:33.987Z,14.00
2018-03-19T08:35:01.550Z,12.33
2018-03-19T08:37:29.073Z,12.67
2018-03-19T08:39:56.598Z,11.63
2018-03-19T08:42:24.165Z,11.10
2018-03-19T08:44:51.676Z,12.30
2018-03-19T08:47:19.237Z,11.50
2018-03-19T08:49:46.834Z,11.23
2018-03-19T08:52:14.607Z,10.60
2018-03-19T08:54:42.146Z,11.83
2018-03-19T08:57:10.137Z,11.70
2018-03-19T08:59:37.776Z,12.20
2018-03-19T09:02:05.284Z,12.00
2018-03-19T09:04:32.847Z,11.83
2018-03-19T09:07:00.366Z,11.60
2018-03-19T09:09:27.936Z,11.33
2018-03-19T09:11:55.485Z,13.30
2018-03-19T09:14:23.011Z,11.10
2018-03-19T09:16:50.599Z,11.43
2018-03-19T09:19:18.156Z,12.03
2018-03-19T09:21:45.685Z,11.30
2018-03-19T09:24:13.209Z,11.00
2018-03-19T09:26:40.776Z,11.03
2018-03-19T09:29:08.523Z,11.93
2018-03-19T09:31:36.025Z,11.23
2018-03-19T09:34:03.825Z,11.90
2018-03-19T09:36:31.564Z,11.33
2018-03-19T09:38:59.136Z,11.10
2018-03-19T09:41:26.798Z,11.30
2018-03-19T09:43:54.481Z,10.40
2018-03-19T09:46:22.063Z,10.60
2018-03-19T09:48:50.873Z,10.50
2018-03-19T09:51:20.364Z,11.20
2018-03-19T09:53:47.907Z,11.17
2018-03-19T09:56:15.551Z,11.60
2018-03-19T09:58:43.188Z,10.97
2018-03-19T10:01:10.748Z,11.17
2018-03-19T10:03:38.304Z,11.50
2018-03-19T10:06:05.824Z,11.30
2018-03-19T10:08:33.444Z,10.83
2018-03-19T10:11:01.291Z,13.77
2018-03-19T10:13:28.852Z,10.70
2018-03-19T10:15:56.422Z,10.50
2018-03-19T10:18:24.017Z,10.53
2018-03-19T10:20:51.770Z,10.87
2018-03-19T10:23:19.520Z,10.70
2018-03-19T10:25:47.049Z,10.67
2018-03-19T10:28:14.581Z,10.80
2018-03-19T10:30:42.109Z,11.40
2018-03-19T10:33:10.443Z,10.67
2018-03-19T10:35:38.314Z,10.40
2018-03-19T10:38:06.103Z,10.37
2018-03-19T10:40:33.645Z,11.43
2018-03-19T10:43:01.165Z,11.23
2018-03-19T10:45:28.683Z,11.00
2018-03-19T10:47:56.294Z,10.97
2018-03-19T10:50:23.814Z,10.83
2018-03-19T10:52:51.639Z,12.33
2018-03-19T10:55:19.218Z,11.03
2018-03-19T10:57:47.315Z,11.27
2018-03-19T11:00:14.840Z,12.63
2018-03-19T11:05:49.142Z,11.50
2018-03-19T11:08:22.385Z,11.10
2018-03-19T11:10:49.839Z,11.10
2018-03-19T11:13:17.693Z,11.97
2018-03-19T11:15:45.258Z,10.83
2018-03-19T11:18:12.890Z,11.07
2018-03-19T11:20:40.411Z,10.90
2018-03-19T11:23:08.047Z,11.13
2018-03-19T11:25:35.587Z,11.17
2018-03-19T11:28:03.105Z,10.27
2018-03-19T11:30:30.661Z,11.03
2018-03-19T11:32:58.548Z,10.40
2018-03-19T11:35:26.105Z,10.80
2018-03-19T11:37:54.037Z,11.43
2018-03-19T11:40:21.813Z,10.90
2018-03-19T11:42:49.504Z,10.97
2018-03-19T11:45:18.118Z,11.10
2018-03-19T11:47:45.808Z,10.80
2018-03-19T11:50:13.346Z,10.50
2018-03-19T11:52:40.901Z,11.17
2018-03-19T11:55:08.734Z,11.10
2018-03-19T11:57:36.257Z,11.10
2018-03-19T12:00:03.837Z,11.10
2018-03-19T12:02:31.422Z,10.90
2018-03-19T12:04:58.944Z,10.93
2018-03-19T12:07:26.973Z,12.10
2018-03-19T12:09:54.497Z,11.10
2018-03-19T12:12:22.418Z,10.30
2018-03-19T12:14:49.955Z,11.23
2018-03-19T12:17:17.506Z,11.33
2018-03-19T12:19:45.031Z,11.40
2018-03-19T12:22:12.553Z,11.83
2018-03-19T12:24:40.089Z,11.63
2018-03-19T12:27:07.612Z,11.60
2018-03-19T12:29:35.167Z,11.50
2018-03-19T12:32:02.690Z,11.40
2018-03-19T12:34:30.198Z,11.90
2018-03-19T12:36:58.230Z,11.30
2018-03-19T12:39:25.868Z,11.40
2018-03-19T12:41:53.365Z,11.37
2018-03-19T12:44:20.900Z,11.87
2018-03-19T12:46:48.410Z,12.23
2018-03-19T12:49:15.965Z,11.67
2018-03-19T12:51:43.839Z,12.90
2018-03-19T12:54:11.366Z,12.50
2018-03-19T12:56:38.900Z,12.37
2018-03-19T12:59:06.451Z,12.73
2018-03-19T13:01:34.008Z,13.77
2018-03-19T13:04:01.576Z,12.40
2018-03-19T13:06:29.130Z,13.43
2018-03-19T13:08:56.755Z,12.07
2018-03-19T13:11:24.607Z,12.40
2018-03-19T13:13:52.220Z,11.73
2018-03-19T13:16:19.741Z,12.53
2018-03-19T13:18:47.243Z,12.13
2018-03-19T13:21:14.798Z,12.10
2018-03-19T13:23:42.325Z,12.20
2018-03-19T13:26:09.864Z,12.03
2018-03-19T13:28:37.413Z,12.63
2018-03-19T13:31:04.934Z,11.63
2018-03-19T13:33:32.478Z,11.90
2018-03-19T13:36:00.429Z,12.73
2018-03-19T13:38:28.023Z,12.10
2018-03-19T13:40:55.499Z,11.63
2018-03-19T13:43:23.094Z,11.63
2018-03-19T13:45:50.696Z,12.00
2018-03-19T13:48:18.229Z,12.37
2018-03-19T13:50:45.815Z,12.40
2018-03-19T13:53:13.404Z,11.97
2018-03-19T13:55:40.971Z,11.70
2018-03-19T13:58:09.575Z,11.83
2018-03-19T14:00:37.164Z,11.53
2018-03-19T14:03:04.710Z,12.00
2018-03-19T14:05:32.281Z,11.90
2018-03-19T14:07:59.888Z,12.20
2018-03-19T14:10:27.453Z,12.63
2018-03-19T14:12:55.006Z,12.10
2018-03-19T14:15:22.713Z,12.20
2018-03-19T14:17:50.241Z,11.97
2018-03-19T14:20:17.795Z,11.90
2018-03-19T14:22:45.373Z,11.97
2018-03-19T14:25:13.094Z,12.00
2018-03-19T14:27:40.706Z,12.17
2018-03-19T14:30:08.268Z,12.80
2018-03-19T14:32:36.408Z,12.67
2018-03-19T14:35:04.000Z,12.10
2018-03-19T14:37:31.577Z,12.57
2018-03-19T14:39:59.177Z,12.40
2018-03-19T14:42:26.728Z,12.70
2018-03-19T14:44:54.383Z,13.33
2018-03-19T14:47:22.022Z,12.37
2018-03-19T14:49:49.581Z,12.73
2018-03-19T14:52:17.091Z,12.90
2018-03-19T14:54:44.753Z,12.50
2018-03-19T14:57:12.325Z,12.20
2018-03-19T14:59:39.964Z,13.70
2018-03-19T15:02:07.590Z,13.30
2018-03-19T15:04:35.381Z,13.10
2018-03-19T15:07:02.971Z,13.03
2018-03-19T15:09:30.489Z,13.50
2018-03-19T15:11:58.680Z,12.63
2018-03-19T15:14:28.305Z,12.43
2018-03-19T15:16:56.910Z,12.57
2018-03-19T15:19:25.454Z,12.80
2018-03-19T15:21:53.901Z,12.53
2018-03-19T15:24:21.532Z,14.53
2018-03-19T15:26:49.120Z,12.20
2018-03-19T15:29:18.361Z,12.40
2018-03-19T15:31:45.901Z,12.60
2018-03-19T15:34:13.975Z,12.23
2018-03-19T15:36:41.510Z,12.43
2018-03-19T15:39:09.066Z,12.40
2018-03-19T15:41:36.622Z,11.93
2018-03-19T15:44:04.447Z,13.10
2018-03-19T15:46:31.934Z,13.13
2018-03-19T15:49:02.174Z,12.80
2018-03-19T15:51:30.605Z,13.00
2018-03-19T15:53:59.134Z,12.20
2018-03-19T15:56:27.414Z,11.90
2018-03-19T15:58:54.935Z,12.87
2018-03-19T16:01:22.503Z,11.70
2018-03-19T16:03:50.043Z,11.73
2018-03-19T16:06:18.804Z,11.53
2018-03-19T16:08:46.367Z,11.00
2018-03-19T16:11:15.174Z,11.73
2018-03-19T16:13:43.031Z,12.37
2018-03-19T16:16:11.180Z,12.00
2018-03-19T16:18:38.719Z,10.73
2018-03-19T16:21:06.217Z,11.63
2018-03-19T16:23:33.804Z,11.70
2018-03-19T16:26:01.752Z,11.13
2018-03-19T16:28:29.372Z,11.77
2018-03-19T16:30:57.166Z,12.40
2018-03-19T16:33:24.781Z,11.87
2018-03-19T16:35:53.257Z,11.33
2018-03-19T16:38:21.095Z,12.00
2018-03-19T16:40:48.722Z,11.73
2018-03-19T16:43:16.231Z,11.57
2018-03-19T16:45:44.008Z,11.73
2018-03-19T16:48:11.567Z,11.97
2018-03-19T16:50:39.085Z,13.07
2018-03-19T16:53:06.615Z,11.33
2018-03-19T16:55:34.829Z,11.53
2018-03-19T16:58:02.711Z,11.40
2018-03-19T17:00:30.354Z,11.90
2018-03-19T17:02:58.240Z,11.93
2018-03-19T17:05:25.758Z,11.13
2018-03-19T17:07:53.305Z,11.20
2018-03-19T17:10:21.305Z,10.93
2018-03-19T17:12:48.873Z,11.30
2018-03-19T17:15:16.498Z,11.57
2018-03-19T17:17:44.047Z,11.40
2018-03-19T17:20:11.613Z,11.40
2018-03-19T17:22:39.127Z,11.97
2018-03-19T17:25:06.712Z,12.00
2018-03-19T17:27:34.206Z,11.73
2018-03-19T17:30:01.739Z,11.50
2018-03-19T17:32:29.289Z,11.70
2018-03-19T17:34:56.801Z,11.70
2018-03-19T17:37:24.847Z,12.50
2018-03-19T17:39:53.044Z,12.00
2018-03-19T17:42:20.861Z,12.00
2018-03-19T17:44:48.411Z,12.30
2018-03-19T17:47:16.146Z,12.20
2018-03-19T17:49:43.739Z,12.00
2018-03-19T17:52:11.283Z,12.53
2018-03-19T17:54:39.463Z,12.20
2018-03-19T17:57:06.986Z,12.73
2018-03-19T17:59:34.550Z,12.77
2018-03-19T18:02:02.096Z,12.37
2018-03-19T18:04:29.642Z,12.10
2018-03-19T18:09:31.265Z,12.57
2018-03-19T18:11:59.052Z,11.77
2018-03-19T18:14:27.039Z,12.47
2018-03-19T18:16:54.589Z,12.10
2018-03-19T18:19:22.112Z,11.80
2018-03-19T18:21:49.660Z,12.97
2018-03-19T18:24:17.214Z,12.47
2018-03-19T18:26:44.755Z,11.93
2018-03-19T18:29:12.876Z,12.23
2018-03-19T18:31:40.471Z,12.70
2018-03-19T18:34:08.079Z,13.00
2018-03-19T18:36:36.414Z,12.40
2018-03-19T18:39:04.014Z,12.17
2018-03-19T18:41:31.943Z,13.40
2018-03-19T18:43:59.566Z,12.50
2018-03-19T18:46:27.608Z,12.47
2018-03-19T18:48:55.487Z,12.83
2018-03-19T18:51:23.304Z,13.20
2018-03-19T18:53:50.829Z,12.70
2018-03-19T18:56:18.548Z,12.50
2018-03-19T18:58:46.116Z,12.50
2018-03-19T19:01:13.674Z,12.70
2018-03-19T19:03:41.720Z,12.83
2018-03-19T19:06:09.592Z,12.40
2018-03-19T19:08:37.164Z,12.87
2018-03-19T19:11:04.713Z,13.80
2018-03-19T19:13:32.223Z,11.90
2018-03-19T19:15:59.752Z,12.73
2018-03-19T19:18:27.436Z,13.20
2018-03-19T19:20:55.103Z,13.10
2018-03-19T19:23:22.772Z,12.60
2018-03-19T19:25:50.384Z,13.20
2018-03-19T19:28:17.928Z,13.53
2018-03-19T19:30:45.882Z,13.23
2018-03-19T19:33:13.456Z,13.90
2018-03-19T19:35:40.978Z,12.83
2018-03-19T19:38:08.511Z,12.70
2018-03-19T19:40:36.066Z,13.53
2018-03-19T19:43:03.925Z,13.30
2018-03-19T19:45:31.467Z,13.53
2018-03-19T19:47:59.244Z,12.63
2018-03-19T19:50:27.413Z,13.10
2018-03-19T19:52:54.996Z,14.20
2018-03-19T19:55:22.566Z,13.63
2018-03-19T19:57:50.118Z,13.13
2018-03-19T20:00:17.658Z,14.20
2018-03-19T20:02:45.218Z,13.70
2018-03-19T20:05:14.605Z,14.97
2018-03-19T20:07:42.158Z,13.60
2018-03-19T20:10:09.699Z,13.80
2018-03-19T20:12:37.521Z,13.90
2018-03-19T20:15:05.078Z,14.00
2018-03-19T20:17:32.573Z,14.67
2018-03-19T20:20:01.127Z,15.23
2018-03-19T20:22:28.715Z,14.70
2018-03-19T20:24:56.249Z,15.40
2018-03-19T20:27:23.816Z,15.10
2018-03-19T20:29:51.469Z,14.27
2018-03-19T20:32:18.988Z,14.33
2018-03-19T20:34:46.494Z,13.90
2018-03-19T20:37:14.227Z,14.90
2018-03-19T20:39:41.821Z,15.40
2018-03-19T20:42:09.347Z,14.70
2018-03-19T20:44:36.957Z,14.57
2018-03-19T20:47:04.508Z,15.50
2018-03-19T20:49:32.010Z,13.97
2018-03-19T20:51:59.731Z,13.90
2018-03-19T20:54:27.281Z,14.00
2018-03-19T20:56:54.830Z,13.90
2018-03-19T20:59:23.350Z,13.80
2018-03-19T21:01:57.342Z,14.07
2018-03-19T21:04:27.584Z,13.00
2018-03-19T21:06:59.047Z,15.60
2018-03-19T21:09:27.946Z,15.40
2018-03-19T21:11:55.978Z,13.60
2018-03-19T21:14:23.513Z,14.40
2018-03-19T21:16:51.073Z,13.77
2018-03-19T21:19:18.599Z,14.87
2018-03-19T21:21:46.120Z,14.63
2018-03-19T21:24:13.699Z,14.53
2018-03-19T21:26:41.248Z,15.03
2018-03-19T21:29:08.769Z,14.73
2018-03-19T21:31:36.562Z,14.80
2018-03-19T21:34:04.338Z,14.33
2018-03-19T21:36:31.891Z,14.90
2018-03-19T21:38:59.455Z,14.87
2018-03-19T21:41:26.952Z,14.33
2018-03-19T21:43:54.597Z,13.60
2018-03-19T21:46:22.381Z,14.40
2018-03-19T21:48:49.945Z,13.63
2018-03-19T21:51:17.504Z,13.63
2018-03-19T21:53:45.086Z,13.40
2018-03-19T21:56:12.591Z,14.60
2018-03-19T21:58:40.112Z,14.43
2018-03-19T22:01:07.712Z,13.47
2018-03-19T22:03:35.261Z,13.60
2018-03-19T22:06:02.852Z,14.37
2018-03-19T22:08:31.170Z,14.60
2018-03-19T22:10:58.902Z,13.30
2018-03-19T22:13:26.421Z,14.67
2018-03-19T22:15:53.997Z,14.97
2018-03-19T22:18:21.525Z,14.80
2018-03-19T22:20:49.079Z,14.20
2018-03-19T22:23:16.739Z,14.03
2018-03-19T22:25:45.047Z,14.40
2018-03-19T22:28:12.584Z,13.67
2018-03-19T22:30:40.493Z,13.40
2018-03-19T22:33:08.014Z,14.97
2018-03-19T22:35:35.511Z,14.30
2018-03-19T22:38:03.361Z,13.93
2018-03-19T22:40:30.958Z,13.47
2018-03-19T22:42:58.454Z,14.80
2018-03-19T22:45:26.021Z,14.40
2018-03-19T22:47:53.623Z,15.47
2018-03-19T22:50:21.146Z,14.57
2018-03-19T22:52:48.709Z,15.13
2018-03-19T22:55:16.224Z,14.67
2018-03-19T22:57:43.735Z,15.53
2018-03-19T23:00:11.270Z,16.90
2018-03-19T23:02:38.773Z,15.00
2018-03-19T23:07:59.629Z,15.23
2018-03-19T23:10:27.152Z,14.23
2018-03-19T23:12:54.670Z,14.90
2018-03-19T23:15:22.183Z,15.50
2018-03-19T23:17:49.732Z,14.97
2018-03-19T23:20:17.248Z,15.80
2018-03-19T23:22:44.747Z,15.23
2018-03-19T23:25:12.368Z,14.40
2018-03-19T23:27:39.920Z,14.73
2018-03-19T23:30:07.436Z,15.23
2018-03-19T23:32:35.298Z,14.57
2018-03-19T23:35:02.814Z,14.57
2018-03-19T23:37:30.452Z,15.53
2018-03-19T23:39:58.003Z,16.33
2018-03-19T23:42:25.523Z,15.70
2018-03-19T23:44:53.047Z,15.60
2018-03-19T23:47:20.585Z,14.90
2018-03-19T23:49:48.121Z,14.73
2018-03-19T23:52:15.632Z,14.77
2018-03-19T23:54:43.233Z,15.87
2018-03-19T23:57:10.755Z,14.73
2018-03-19T23:59:38.280Z,13.97
